createdAt,value
2018-12-12T00:02:20.819Z,0.00
2018-12-12T00:04:20.809Z,0.00
2018-12-12T00:05:20.793Z,0.00
2018-12-12T00:06:20.775Z,0.00
2018-12-12T00:11:20.718Z,0.00
2018-12-12T00:13:20.695Z,0.00
2018-12-12T00:14:20.684Z,0.00
2018-12-12T00:16:20.664Z,0.00
2018-12-12T00:18:20.641Z,0.00
2018-12-12T00:19:20.627Z,0.00
2018-12-12T00:20:20.619Z,0.00
2018-12-12T00:21:20.613Z,0.00
2018-12-12T00:22:20.610Z,0.00
2018-12-12T00:23:20.593Z,0.00
2018-12-12T00:25:20.561Z,0.00
2018-12-12T00:26:20.552Z,0.00
2018-12-12T00:28:20.526Z,0.00
2018-12-12T00:31:20.492Z,0.00
2018-12-12T00:34:20.459Z,0.00
2018-12-12T00:35:20.447Z,0.00
2018-12-12T00:36:20.438Z,0.00
2018-12-12T00:37:20.425Z,0.00
2018-12-12T00:38:20.413Z,0.00
2018-12-12T00:39:20.401Z,0.00
2018-12-12T00:40:20.392Z,0.00
2018-12-12T00:41:20.380Z,0.00
2018-12-12T00:42:20.385Z,0.00
2018-12-12T00:44:20.368Z,0.00
2018-12-12T00:45:20.347Z,0.00
2018-12-12T00:47:20.324Z,0.00
2018-12-12T00:48:20.312Z,0.00
2018-12-12T00:49:20.307Z,0.00
2018-12-12T00:50:20.280Z,0.00
2018-12-12T00:51:20.268Z,0.00
2018-12-12T00:52:20.255Z,0.00
2018-12-12T00:53:20.250Z,0.00
2018-12-12T00:54:20.234Z,0.00
2018-12-12T00:55:20.223Z,0.00
2018-12-12T00:56:20.210Z,0.00
2018-12-12T00:57:20.198Z,0.00
2018-12-12T00:58:20.187Z,0.00
2018-12-12T00:59:20.175Z,0.00
2018-12-12T01:00:20.178Z,0.00
2018-12-12T01:01:20.166Z,0.00
2018-12-12T01:02:20.164Z,0.00
2018-12-12T01:04:20.118Z,0.00
2018-12-12T01:06:20.098Z,0.00
2018-12-12T01:07:20.102Z,0.00
2018-12-12T01:08:20.076Z,0.00
2018-12-12T01:09:20.072Z,0.00
2018-12-12T01:10:20.052Z,0.00
2018-12-12T01:12:20.030Z,0.00
2018-12-12T01:13:20.024Z,0.00
2018-12-12T01:14:20.023Z,0.00
2018-12-12T01:15:19.994Z,0.00
2018-12-12T01:16:19.988Z,0.00
2018-12-12T01:18:19.963Z,0.00
2018-12-12T01:19:19.955Z,0.00
2018-12-12T01:20:19.953Z,0.00
2018-12-12T01:21:19.928Z,0.00
2018-12-12T01:23:19.906Z,0.00
2018-12-12T01:24:19.897Z,0.00
2018-12-12T01:25:19.895Z,0.00
2018-12-12T01:26:19.884Z,0.00
2018-12-12T01:27:19.862Z,0.00
2018-12-12T01:28:19.856Z,0.00
2018-12-12T01:29:19.837Z,0.00
2018-12-12T01:31:19.821Z,0.00
2018-12-12T01:32:19.804Z,0.00
2018-12-12T01:33:19.794Z,0.00
2018-12-12T01:34:19.780Z,0.00
2018-12-12T01:35:19.769Z,0.00
2018-12-12T01:36:19.774Z,0.00
2018-12-12T01:37:19.765Z,0.00
2018-12-12T01:38:19.742Z,0.00
2018-12-12T01:39:19.728Z,0.00
2018-12-12T01:40:19.716Z,0.00
2018-12-12T01:41:19.719Z,0.00
2018-12-12T01:42:19.708Z,0.00
2018-12-12T01:43:19.680Z,0.00
2018-12-12T01:44:19.672Z,0.00
2018-12-12T01:45:19.657Z,0.00
2018-12-12T01:47:19.633Z,0.00
2018-12-12T01:48:19.625Z,0.00
2018-12-12T01:49:19.611Z,0.00
2018-12-12T01:50:19.602Z,0.00
2018-12-12T01:51:19.587Z,0.00
2018-12-12T01:52:19.579Z,0.00
2018-12-12T01:53:19.585Z,0.00
2018-12-12T01:54:19.556Z,0.00
2018-12-12T01:56:19.532Z,0.00
2018-12-12T01:57:19.523Z,0.00
2018-12-12T01:58:19.510Z,0.00
2018-12-12T01:59:19.513Z,0.00
2018-12-12T02:00:19.498Z,0.00
2018-12-12T02:01:19.482Z,0.00
2018-12-12T02:02:19.464Z,0.00
2018-12-12T02:03:19.456Z,0.00
2018-12-12T02:04:19.447Z,0.00
2018-12-12T02:05:19.436Z,0.00
2018-12-12T02:06:19.425Z,0.00
2018-12-12T02:07:19.429Z,0.00
2018-12-12T02:08:19.402Z,0.00
2018-12-12T02:09:19.384Z,0.00
2018-12-12T02:10:19.373Z,0.00
2018-12-12T02:11:19.363Z,0.00
2018-12-12T02:12:19.357Z,0.00
2018-12-12T02:13:19.343Z,0.00
2018-12-12T02:15:19.324Z,0.00
2018-12-12T02:16:19.315Z,0.00
2018-12-12T02:17:19.294Z,0.00
2018-12-12T02:18:19.286Z,0.00
2018-12-12T02:19:19.289Z,0.00
2018-12-12T02:20:19.273Z,0.00
2018-12-12T02:21:19.257Z,0.00
2018-12-12T02:23:19.227Z,0.00
2018-12-12T02:24:19.217Z,0.00
2018-12-12T02:25:19.204Z,0.00
2018-12-12T02:26:19.202Z,0.00
2018-12-12T02:27:19.183Z,0.00
2018-12-12T02:28:19.183Z,0.00
2018-12-12T02:29:19.163Z,0.00
2018-12-12T02:30:19.157Z,0.00
2018-12-12T02:31:19.142Z,0.00
2018-12-12T02:32:19.142Z,0.00
2018-12-12T02:33:19.119Z,0.00
2018-12-12T02:34:19.107Z,0.00
2018-12-12T02:35:19.098Z,0.00
2018-12-12T02:36:19.097Z,0.00
2018-12-12T02:37:19.070Z,0.00
2018-12-12T02:38:19.056Z,0.00
2018-12-12T02:39:19.047Z,0.00
2018-12-12T02:40:19.047Z,0.00
2018-12-12T02:41:19.031Z,0.00
2018-12-12T02:42:19.011Z,0.00
2018-12-12T02:43:19.008Z,0.00
2018-12-12T02:44:18.995Z,0.00
2018-12-12T02:45:18.985Z,0.00
2018-12-12T02:47:18.979Z,0.00
2018-12-12T02:48:18.959Z,0.00
2018-12-12T02:49:18.939Z,0.00
2018-12-12T02:50:18.936Z,0.00
2018-12-12T02:51:18.936Z,0.00
2018-12-12T02:52:18.899Z,0.00
2018-12-12T02:53:18.890Z,0.00
2018-12-12T02:54:18.876Z,0.00
2018-12-12T02:55:18.869Z,0.00
2018-12-12T02:56:18.853Z,0.00
2018-12-12T02:57:18.842Z,0.00
2018-12-12T02:59:18.823Z,0.00
2018-12-12T03:00:18.814Z,0.00
2018-12-12T03:01:18.802Z,0.00
2018-12-12T03:02:18.783Z,0.00
2018-12-12T03:03:18.776Z,0.00
2018-12-12T03:04:18.766Z,0.00
2018-12-12T03:05:18.763Z,0.00
2018-12-12T03:06:18.748Z,0.00
2018-12-12T03:07:18.750Z,0.00
2018-12-12T03:08:18.719Z,0.00
2018-12-12T03:09:18.713Z,0.00
2018-12-12T03:10:18.695Z,0.00
2018-12-12T03:11:18.688Z,0.00
2018-12-12T03:12:18.672Z,0.00
2018-12-12T03:13:18.663Z,0.00
2018-12-12T03:14:18.651Z,0.00
2018-12-12T03:15:18.643Z,0.00
2018-12-12T03:16:18.634Z,0.00
2018-12-12T03:17:18.619Z,0.00
2018-12-12T03:18:18.606Z,0.00
2018-12-12T03:19:18.595Z,0.00
2018-12-12T03:20:18.588Z,0.00
2018-12-12T03:21:18.574Z,0.00
2018-12-12T03:22:18.561Z,0.00
2018-12-12T03:23:18.549Z,0.00
2018-12-12T03:24:18.538Z,0.00
2018-12-12T03:25:18.530Z,0.00
2018-12-12T03:26:18.515Z,0.00
2018-12-12T03:27:18.508Z,0.00
2018-12-12T03:28:18.495Z,0.00
2018-12-12T03:29:18.488Z,0.00
2018-12-12T03:30:18.478Z,0.00
2018-12-12T03:31:18.467Z,0.00
2018-12-12T03:32:18.449Z,0.00
2018-12-12T03:33:18.436Z,0.00
2018-12-12T03:34:18.431Z,0.00
2018-12-12T03:35:18.421Z,0.00
2018-12-12T03:36:18.410Z,0.00
2018-12-12T03:37:18.393Z,0.00
2018-12-12T03:38:18.384Z,0.00
2018-12-12T03:39:18.376Z,0.00
2018-12-12T03:40:18.359Z,0.00
2018-12-12T03:41:18.348Z,0.00
2018-12-12T03:42:18.336Z,0.00
2018-12-12T03:43:18.325Z,0.00
2018-12-12T03:44:18.322Z,0.00
2018-12-12T03:45:18.304Z,0.00
2018-12-12T03:46:18.295Z,0.00
2018-12-12T03:47:18.279Z,0.00
2018-12-12T03:48:18.269Z,0.00
2018-12-12T03:49:18.261Z,0.00
2018-12-12T03:50:18.267Z,0.00
2018-12-12T03:51:18.271Z,0.00
2018-12-12T03:52:18.260Z,0.00
2018-12-12T03:53:18.263Z,0.00
2018-12-12T03:54:18.207Z,0.00
2018-12-12T03:55:18.209Z,0.00
2018-12-12T03:56:18.212Z,0.00
2018-12-12T03:57:18.216Z,0.00
2018-12-12T03:58:18.172Z,0.00
2018-12-12T03:59:18.147Z,0.00
2018-12-12T04:00:18.134Z,0.00
2018-12-12T04:01:18.122Z,0.00
2018-12-12T04:02:18.111Z,0.00
2018-12-12T04:03:18.100Z,0.00
2018-12-12T04:04:18.089Z,0.00
2018-12-12T04:05:18.081Z,0.00
2018-12-12T04:06:18.066Z,0.00
2018-12-12T04:07:18.058Z,0.00
2018-12-12T04:08:18.044Z,0.00
2018-12-12T04:09:18.032Z,0.00
2018-12-12T04:10:18.021Z,0.00
2018-12-12T04:11:18.010Z,0.00
2018-12-12T04:12:18.002Z,0.00
2018-12-12T04:13:17.988Z,0.00
2018-12-12T04:14:17.977Z,0.00
2018-12-12T04:15:17.967Z,0.00
2018-12-12T04:16:17.954Z,0.00
2018-12-12T04:17:17.951Z,0.00
2018-12-12T04:18:17.938Z,0.00
2018-12-12T04:19:17.926Z,0.00
2018-12-12T04:20:17.909Z,0.00
2018-12-12T04:21:17.911Z,0.00
2018-12-12T04:22:17.891Z,0.00
2018-12-12T04:23:17.876Z,0.00
2018-12-12T04:24:17.864Z,0.00
2018-12-12T04:25:17.857Z,0.00
2018-12-12T04:26:17.845Z,0.00
2018-12-12T04:27:17.831Z,0.00
2018-12-12T04:28:17.821Z,0.00
2018-12-12T04:29:17.812Z,0.00
2018-12-12T04:30:17.798Z,0.00
2018-12-12T04:31:17.788Z,0.00
2018-12-12T04:32:17.783Z,0.00
2018-12-12T04:33:17.765Z,0.00
2018-12-12T04:34:17.754Z,0.00
2018-12-12T04:35:17.741Z,0.00
2018-12-12T04:36:17.734Z,0.00
2018-12-12T04:37:17.724Z,0.00
2018-12-12T04:38:17.713Z,0.00
2018-12-12T04:39:17.697Z,0.00
2018-12-12T04:40:17.686Z,0.00
2018-12-12T04:41:17.676Z,0.00
2018-12-12T04:42:17.664Z,0.00
2018-12-12T04:43:17.656Z,0.00
2018-12-12T04:44:17.641Z,0.00
2018-12-12T04:45:17.637Z,0.00
2018-12-12T04:46:17.618Z,0.00
2018-12-12T04:47:17.612Z,0.00
2018-12-12T04:48:17.601Z,0.00
2018-12-12T04:49:17.588Z,0.00
2018-12-12T04:50:17.573Z,0.00
2018-12-12T04:51:17.563Z,0.00
2018-12-12T04:52:17.550Z,0.00
2018-12-12T04:53:17.543Z,0.00
2018-12-12T04:54:17.535Z,0.00
2018-12-12T04:55:17.518Z,0.00
2018-12-12T04:56:17.508Z,0.00
2018-12-12T04:57:17.497Z,0.00
2018-12-12T04:58:17.484Z,0.00
2018-12-12T04:59:17.474Z,0.00
2018-12-12T05:00:17.461Z,0.00
2018-12-12T05:01:17.452Z,0.00
2018-12-12T05:02:17.445Z,0.00
2018-12-12T05:03:17.430Z,0.00
2018-12-12T05:04:17.418Z,0.00
2018-12-12T05:05:17.410Z,0.00
2018-12-12T05:06:17.397Z,0.00
2018-12-12T05:07:17.385Z,0.00
2018-12-12T05:08:17.372Z,0.00
2018-12-12T05:09:17.360Z,0.00
2018-12-12T05:10:17.356Z,0.00
2018-12-12T05:11:17.341Z,0.00
2018-12-12T05:12:17.330Z,0.00
2018-12-12T05:13:17.317Z,0.00
2018-12-12T05:14:17.305Z,0.00
2018-12-12T05:15:17.301Z,0.00
2018-12-12T05:16:17.282Z,0.00
2018-12-12T05:17:17.270Z,0.00
2018-12-12T05:18:17.261Z,0.00
2018-12-12T05:19:17.249Z,0.00
2018-12-12T05:20:17.244Z,0.00
2018-12-12T05:21:17.234Z,0.00
2018-12-12T05:22:17.222Z,0.00
2018-12-12T05:23:17.209Z,0.00
2018-12-12T05:24:17.199Z,0.00
2018-12-12T05:25:17.187Z,0.00
2018-12-12T05:26:17.178Z,0.00
2018-12-12T05:27:17.167Z,0.00
2018-12-12T05:28:17.148Z,0.00
2018-12-12T05:29:17.145Z,0.00
2018-12-12T05:30:17.126Z,0.00
2018-12-12T05:31:17.119Z,0.00
2018-12-12T05:32:17.105Z,0.00
2018-12-12T05:33:17.095Z,0.00
2018-12-12T05:34:17.084Z,0.00
2018-12-12T05:35:17.071Z,0.00
2018-12-12T05:36:17.059Z,0.00
2018-12-12T05:37:17.047Z,0.00
2018-12-12T05:38:17.051Z,0.00
2018-12-12T05:39:17.025Z,0.00
2018-12-12T05:40:17.083Z,0.00
2018-12-12T05:41:17.008Z,0.00
2018-12-12T05:42:16.993Z,0.00
2018-12-12T05:43:16.980Z,0.00
2018-12-12T05:44:16.969Z,0.00
2018-12-12T05:45:16.959Z,0.00
2018-12-12T05:46:16.949Z,0.00
2018-12-12T05:47:16.943Z,0.00
2018-12-12T05:48:16.924Z,0.00
2018-12-12T05:49:16.912Z,0.00
2018-12-12T05:50:16.903Z,0.00
2018-12-12T05:51:16.890Z,0.00
2018-12-12T05:52:16.879Z,0.00
2018-12-12T05:53:16.872Z,0.00
2018-12-12T05:54:16.856Z,0.00
2018-12-12T05:55:16.845Z,0.00
2018-12-12T05:56:16.835Z,0.00
2018-12-12T05:57:16.827Z,0.00
2018-12-12T05:58:16.814Z,0.00
2018-12-12T05:59:16.799Z,0.00
2018-12-12T06:00:16.794Z,0.00
2018-12-12T06:01:16.777Z,0.00
2018-12-12T06:02:16.767Z,0.00
2018-12-12T06:03:16.756Z,0.00
2018-12-12T06:04:16.743Z,0.00
2018-12-12T06:05:16.734Z,0.00
2018-12-12T06:06:16.721Z,0.00
2018-12-12T06:07:16.714Z,0.00
2018-12-12T06:08:16.700Z,0.00
2018-12-12T06:09:16.687Z,0.00
2018-12-12T06:10:16.677Z,0.00
2018-12-12T06:11:16.669Z,0.00
2018-12-12T06:12:16.653Z,0.00
2018-12-12T06:13:16.643Z,0.00
2018-12-12T06:14:16.631Z,68.00
2018-12-12T06:15:16.623Z,96.00
2018-12-12T06:16:16.626Z,104.00
2018-12-12T06:17:16.604Z,104.00
2018-12-12T06:18:16.587Z,100.00
2018-12-12T06:19:16.578Z,100.00
2018-12-12T06:20:16.565Z,104.00
2018-12-12T06:21:16.555Z,104.00
2018-12-12T06:22:16.541Z,100.00
2018-12-12T06:23:16.530Z,104.00
2018-12-12T06:24:16.520Z,104.00
2018-12-12T06:25:16.511Z,104.00
2018-12-12T06:26:16.496Z,104.00
2018-12-12T06:27:16.490Z,104.00
2018-12-12T06:28:16.473Z,108.00
2018-12-12T06:29:16.463Z,104.00
2018-12-12T06:30:16.457Z,104.00
2018-12-12T06:31:16.439Z,108.00
2018-12-12T06:32:16.429Z,104.00
2018-12-12T06:33:16.416Z,104.00
2018-12-12T06:34:16.442Z,104.00
2018-12-12T06:35:16.398Z,104.00
2018-12-12T06:36:16.426Z,108.00
2018-12-12T06:37:16.379Z,104.00
2018-12-12T06:38:16.364Z,104.00
2018-12-12T06:39:16.352Z,104.00
2018-12-12T06:40:16.338Z,108.00
2018-12-12T06:41:16.332Z,108.00
2018-12-12T06:42:16.315Z,108.00
2018-12-12T06:43:16.313Z,108.00
2018-12-12T06:44:16.292Z,108.00
2018-12-12T06:45:16.280Z,108.00
2018-12-12T06:46:16.279Z,112.00
2018-12-12T06:47:16.259Z,112.00
2018-12-12T06:48:16.247Z,116.00
2018-12-12T06:49:16.237Z,116.00
2018-12-12T06:50:16.225Z,120.00
2018-12-12T06:51:16.213Z,120.00
2018-12-12T06:52:16.206Z,124.00
2018-12-12T06:53:16.191Z,128.00
2018-12-12T06:54:16.180Z,128.00
2018-12-12T06:55:16.168Z,132.00
2018-12-12T06:56:16.165Z,136.00
2018-12-12T06:57:16.153Z,140.00
2018-12-12T06:58:16.137Z,144.00
2018-12-12T06:59:16.131Z,144.00
2018-12-12T07:00:16.114Z,148.00
2018-12-12T07:01:16.100Z,152.00
2018-12-12T07:02:16.094Z,156.00
2018-12-12T07:03:16.086Z,160.00
2018-12-12T07:04:16.074Z,168.00
2018-12-12T07:05:16.070Z,176.00
2018-12-12T07:06:16.057Z,188.00
2018-12-12T07:07:16.035Z,196.00
2018-12-12T07:08:16.025Z,208.00
2018-12-12T07:09:16.013Z,216.00
2018-12-12T07:10:16.001Z,224.00
2018-12-12T07:11:15.990Z,228.00
2018-12-12T07:12:15.980Z,236.00
2018-12-12T07:13:15.965Z,244.00
2018-12-12T07:14:15.958Z,252.00
2018-12-12T07:15:15.948Z,268.00
2018-12-12T07:16:15.931Z,284.00
2018-12-12T07:17:15.922Z,300.00
2018-12-12T07:18:15.909Z,316.00
2018-12-12T07:19:15.896Z,324.00
2018-12-12T07:20:15.891Z,324.00
2018-12-12T07:21:15.874Z,332.00
2018-12-12T07:22:15.864Z,340.00
2018-12-12T07:23:15.855Z,356.00
2018-12-12T07:24:15.841Z,376.00
2018-12-12T07:25:15.831Z,400.00
2018-12-12T07:26:15.823Z,424.00
2018-12-12T07:27:15.807Z,444.00
2018-12-12T07:28:15.804Z,464.00
2018-12-12T07:29:15.786Z,476.00
2018-12-12T07:30:15.780Z,484.00
2018-12-12T07:31:15.762Z,488.00
2018-12-12T07:32:15.757Z,488.00
2018-12-12T07:33:15.747Z,488.00
2018-12-12T07:34:15.727Z,472.00
2018-12-12T07:35:15.722Z,468.00
2018-12-12T07:36:15.707Z,472.00
2018-12-12T07:37:15.694Z,480.00
2018-12-12T07:38:15.685Z,500.00
2018-12-12T07:39:18.099Z,508.00
2018-12-12T07:40:15.662Z,536.00
2018-12-12T07:41:15.650Z,564.00
2018-12-12T07:42:15.639Z,588.00
2018-12-12T07:43:15.626Z,612.00
2018-12-12T07:44:15.615Z,628.00
2018-12-12T07:45:16.646Z,636.00
2018-12-12T07:46:15.598Z,652.00
2018-12-12T07:47:15.588Z,672.00
2018-12-12T07:48:15.572Z,696.00
2018-12-12T07:49:15.558Z,716.00
2018-12-12T07:50:15.547Z,732.00
2018-12-12T07:51:15.536Z,736.00
2018-12-12T07:52:15.527Z,740.00
2018-12-12T07:53:15.515Z,748.00
2018-12-12T07:54:15.506Z,756.00
2018-12-12T07:55:15.498Z,772.00
2018-12-12T07:56:15.480Z,788.00
2018-12-12T07:57:15.472Z,796.00
2018-12-12T07:58:15.465Z,804.00
2018-12-12T07:59:15.453Z,788.00
2018-12-12T08:00:15.442Z,764.00
2018-12-12T08:01:15.426Z,732.00
2018-12-12T08:02:15.414Z,700.00
2018-12-12T08:03:15.423Z,696.00
2018-12-12T08:04:15.412Z,716.00
2018-12-12T08:05:15.383Z,752.00
2018-12-12T08:06:15.375Z,812.00
2018-12-12T08:07:15.358Z,880.00
2018-12-12T08:08:15.414Z,932.00
2018-12-12T08:09:15.335Z,976.00
2018-12-12T08:10:15.339Z,992.00
2018-12-12T08:11:15.314Z,1016.00
2018-12-12T08:12:15.306Z,1020.00
2018-12-12T08:13:15.290Z,1016.00
2018-12-12T08:14:15.287Z,1032.00
2018-12-12T08:15:15.269Z,1104.00
2018-12-12T08:16:15.257Z,1124.00
2018-12-12T08:17:15.253Z,1112.00
2018-12-12T08:18:15.235Z,1060.00
2018-12-12T08:19:15.224Z,1152.00
2018-12-12T08:20:15.214Z,1072.00
2018-12-12T08:21:15.205Z,1040.00
2018-12-12T08:22:15.191Z,1128.00
2018-12-12T08:23:15.179Z,1144.00
2018-12-12T08:24:15.168Z,1148.00
2018-12-12T08:25:15.161Z,1144.00
2018-12-12T08:26:15.145Z,1120.00
2018-12-12T08:27:15.135Z,1228.00
2018-12-12T08:28:15.131Z,1304.00
2018-12-12T08:29:15.111Z,1308.00
2018-12-12T08:30:15.101Z,1184.00
2018-12-12T08:31:15.105Z,1192.00
2018-12-12T08:32:15.081Z,1200.00
2018-12-12T08:33:15.115Z,1280.00
2018-12-12T08:34:15.057Z,1340.00
2018-12-12T08:35:15.046Z,1236.00
2018-12-12T08:36:15.037Z,1304.00
2018-12-12T08:37:15.023Z,1200.00
2018-12-12T08:38:15.010Z,1244.00
2018-12-12T08:39:15.001Z,1160.00
2018-12-12T08:40:14.988Z,1160.00
2018-12-12T08:41:14.979Z,1180.00
2018-12-12T08:42:14.966Z,1140.00
2018-12-12T08:43:14.961Z,1132.00
2018-12-12T08:44:14.950Z,1328.00
2018-12-12T08:45:14.932Z,1272.00
2018-12-12T08:46:14.921Z,1128.00
2018-12-12T08:47:14.909Z,1160.00
2018-12-12T08:48:14.900Z,1328.00
2018-12-12T08:49:14.889Z,1256.00
2018-12-12T08:50:14.876Z,1272.00
2018-12-12T08:51:14.868Z,1220.00
2018-12-12T08:52:14.859Z,1208.00
2018-12-12T08:53:14.843Z,1360.00
2018-12-12T08:54:14.831Z,1240.00
2018-12-12T08:55:17.792Z,1196.00
2018-12-12T08:56:14.810Z,1176.00
2018-12-12T08:57:14.797Z,1240.00
2018-12-12T08:58:14.788Z,1168.00
2018-12-12T08:59:14.776Z,1220.00
2018-12-12T09:00:14.765Z,1312.00
2018-12-12T09:01:14.756Z,1252.00
2018-12-12T09:02:14.743Z,1388.00
2018-12-12T09:03:17.560Z,1520.00
2018-12-12T09:04:14.728Z,1664.00
2018-12-12T09:05:14.713Z,1768.00
2018-12-12T09:06:14.699Z,1884.00
2018-12-12T09:07:14.691Z,1876.00
2018-12-12T09:08:14.673Z,1828.00
2018-12-12T09:09:14.665Z,1972.00
2018-12-12T09:10:14.653Z,2192.00
2018-12-12T09:11:14.650Z,2292.00
2018-12-12T09:12:14.634Z,2116.00
2018-12-12T09:13:15.435Z,2404.00
2018-12-12T09:14:14.610Z,2500.00
2018-12-12T09:15:14.598Z,2340.00
2018-12-12T09:16:14.635Z,2264.00
2018-12-12T09:17:14.576Z,2492.00
2018-12-12T09:18:14.564Z,2680.00
2018-12-12T09:19:14.554Z,2716.00
2018-12-12T09:20:14.547Z,2816.00
2018-12-12T09:21:14.533Z,2856.00
2018-12-12T09:22:14.518Z,2424.00
2018-12-12T09:23:14.508Z,2388.00
2018-12-12T09:24:14.496Z,2784.00
2018-12-12T09:25:14.485Z,3180.00
2018-12-12T09:26:14.475Z,3320.00
2018-12-12T09:27:14.462Z,2836.00
2018-12-12T09:28:14.461Z,2572.00
2018-12-12T09:29:14.450Z,2888.00
2018-12-12T09:30:14.428Z,3196.00
2018-12-12T09:31:14.418Z,2792.00
2018-12-12T09:32:14.410Z,2784.00
2018-12-12T09:33:14.404Z,2636.00
2018-12-12T09:34:14.409Z,2360.00
2018-12-12T09:35:14.413Z,3240.00
2018-12-12T09:36:14.410Z,3368.00
2018-12-12T09:37:14.357Z,3360.00
2018-12-12T09:38:14.353Z,3120.00
2018-12-12T09:39:14.359Z,3112.00
2018-12-12T09:40:14.363Z,3068.00
2018-12-12T09:41:14.306Z,2836.00
2018-12-12T09:42:14.300Z,2976.00
2018-12-12T09:43:14.286Z,3384.00
2018-12-12T09:44:14.271Z,3152.00
2018-12-12T09:45:14.262Z,3380.00
2018-12-12T09:46:14.256Z,3772.00
2018-12-12T09:47:14.237Z,3536.00
2018-12-12T09:48:19.255Z,3044.00
2018-12-12T09:49:38.727Z,3148.00
2018-12-12T09:50:38.695Z,3392.00
2018-12-12T09:51:38.686Z,3544.00
2018-12-12T09:52:38.676Z,3024.00
2018-12-12T09:53:38.659Z,3084.00
2018-12-12T09:54:38.652Z,3424.00
2018-12-12T09:55:38.648Z,3772.00
2018-12-12T09:56:38.625Z,3552.00
2018-12-12T09:57:38.613Z,3416.00
2018-12-12T09:58:38.607Z,3644.00
2018-12-12T09:59:38.594Z,2928.00
2018-12-12T10:00:38.580Z,2752.00
2018-12-12T10:01:38.573Z,3108.00
2018-12-12T10:02:38.559Z,3296.00
2018-12-12T10:03:38.549Z,3380.00
2018-12-12T10:04:38.534Z,3708.00
2018-12-12T10:05:38.526Z,3680.00
2018-12-12T10:06:38.512Z,3476.00
2018-12-12T10:07:38.507Z,3264.00
2018-12-12T10:08:38.495Z,3540.00
2018-12-12T10:09:38.483Z,3288.00
2018-12-12T10:10:38.471Z,2748.00
2018-12-12T10:11:38.460Z,2744.00
2018-12-12T10:12:38.444Z,2600.00
2018-12-12T10:13:38.434Z,2208.00
2018-12-12T10:14:38.424Z,2212.00
2018-12-12T10:15:38.412Z,2728.00
2018-12-12T10:16:38.399Z,2988.00
2018-12-12T10:17:38.391Z,3028.00
2018-12-12T10:18:38.383Z,3208.00
2018-12-12T10:19:38.371Z,3424.00
2018-12-12T10:20:38.360Z,3904.00
2018-12-12T10:21:38.346Z,4256.00
2018-12-12T10:22:38.332Z,4168.00
2018-12-12T10:23:38.331Z,3680.00
2018-12-12T10:24:38.310Z,3924.00
2018-12-12T10:25:38.308Z,4724.00
2018-12-12T10:26:38.287Z,4828.00
2018-12-12T10:27:38.282Z,5184.00
2018-12-12T10:28:38.268Z,5456.00
2018-12-12T10:29:38.453Z,5380.00
2018-12-12T10:30:38.244Z,4344.00
2018-12-12T10:31:38.239Z,3200.00
2018-12-12T10:32:38.220Z,2980.00
2018-12-12T10:33:38.209Z,3492.00
2018-12-12T10:34:38.201Z,4292.00
2018-12-12T10:35:38.184Z,3988.00
2018-12-12T10:36:38.175Z,4428.00
2018-12-12T10:37:38.170Z,4656.00
2018-12-12T10:38:38.156Z,4476.00
2018-12-12T10:39:38.143Z,4264.00
2018-12-12T10:40:38.129Z,4024.00
2018-12-12T10:41:38.119Z,4140.00
2018-12-12T10:42:38.107Z,3784.00
2018-12-12T10:43:38.096Z,3900.00
2018-12-12T10:44:38.086Z,4492.00
2018-12-12T10:45:38.074Z,4500.00
2018-12-12T10:46:38.061Z,3864.00
2018-12-12T10:47:38.054Z,3324.00
2018-12-12T10:48:38.039Z,3140.00
2018-12-12T10:49:38.027Z,3588.00
2018-12-12T10:50:38.020Z,4072.00
2018-12-12T10:51:38.009Z,4308.00
2018-12-12T10:52:37.995Z,4300.00
2018-12-12T10:53:37.983Z,5228.00
2018-12-12T10:54:37.971Z,5428.00
2018-12-12T10:55:37.965Z,5276.00
2018-12-12T10:56:37.957Z,4844.00
2018-12-12T10:57:37.939Z,4832.00
2018-12-12T10:58:38.373Z,4540.00
2018-12-12T10:59:37.914Z,4580.00
2018-12-12T11:00:37.904Z,4836.00
2018-12-12T11:01:37.895Z,4164.00
2018-12-12T11:02:37.882Z,3460.00
2018-12-12T11:03:43.967Z,3316.00
2018-12-12T11:05:02.338Z,3956.00
2018-12-12T11:06:02.327Z,4828.00
2018-12-12T11:07:02.322Z,4328.00
2018-12-12T11:08:02.313Z,5100.00
2018-12-12T11:09:02.294Z,5156.00
2018-12-12T11:10:02.284Z,4812.00
2018-12-12T11:11:02.272Z,4704.00
2018-12-12T11:12:02.260Z,4384.00
2018-12-12T11:13:02.247Z,4632.00
2018-12-12T11:14:02.239Z,5252.00
2018-12-12T11:15:02.233Z,5656.00
2018-12-12T11:16:02.218Z,4868.00
2018-12-12T11:17:02.213Z,4908.00
2018-12-12T11:18:02.198Z,4448.00
2018-12-12T11:19:02.184Z,4528.00
2018-12-12T11:20:02.175Z,4248.00
2018-12-12T11:21:02.158Z,4616.00
2018-12-12T11:22:02.159Z,4672.00
2018-12-12T11:23:02.140Z,4016.00
2018-12-12T11:24:02.129Z,3264.00
2018-12-12T11:25:02.125Z,2672.00
2018-12-12T11:26:02.103Z,2308.00
2018-12-12T11:27:02.091Z,2032.00
2018-12-12T11:28:02.081Z,2076.00
2018-12-12T11:29:02.072Z,2064.00
2018-12-12T11:30:02.063Z,1880.00
2018-12-12T11:31:02.054Z,1736.00
2018-12-12T11:32:02.033Z,2200.00
2018-12-12T11:33:02.032Z,2528.00
2018-12-12T11:34:02.015Z,2648.00
2018-12-12T11:35:02.034Z,2792.00
2018-12-12T11:36:01.990Z,3032.00
2018-12-12T11:37:01.985Z,3548.00
2018-12-12T11:38:01.970Z,4076.00
2018-12-12T11:39:01.956Z,4440.00
2018-12-12T11:40:01.962Z,4588.00
2018-12-12T11:41:01.939Z,4868.00
2018-12-12T11:42:01.921Z,4996.00
2018-12-12T11:43:01.912Z,4936.00
2018-12-12T11:44:01.901Z,5116.00
2018-12-12T11:45:01.890Z,5416.00
2018-12-12T11:46:01.877Z,5812.00
2018-12-12T11:47:01.865Z,6596.00
2018-12-12T11:48:01.856Z,7056.00
2018-12-12T11:49:01.844Z,6844.00
2018-12-12T11:50:01.830Z,6520.00
2018-12-12T11:51:01.822Z,6232.00
2018-12-12T11:52:01.810Z,5864.00
2018-12-12T11:53:01.797Z,5792.00
2018-12-12T11:54:01.791Z,6104.00
2018-12-12T11:55:01.787Z,5900.00
2018-12-12T11:56:01.768Z,5116.00
2018-12-12T11:57:01.792Z,4744.00
2018-12-12T11:58:01.744Z,4976.00
2018-12-12T11:59:01.734Z,5268.00
2018-12-12T12:00:01.725Z,5132.00
2018-12-12T12:01:01.729Z,4656.00
2018-12-12T12:02:01.698Z,4348.00
2018-12-12T12:03:01.694Z,4232.00
2018-12-12T12:04:01.673Z,4168.00
2018-12-12T12:05:01.661Z,4012.00
2018-12-12T12:06:01.649Z,3996.00
2018-12-12T12:07:01.639Z,4156.00
2018-12-12T12:08:01.629Z,4356.00
2018-12-12T12:09:01.617Z,4536.00
2018-12-12T12:10:01.606Z,4492.00
2018-12-12T12:11:01.607Z,4172.00
2018-12-12T12:12:01.585Z,4012.00
2018-12-12T12:13:01.582Z,3732.00
2018-12-12T12:14:01.572Z,3340.00
2018-12-12T12:15:01.550Z,3280.00
2018-12-12T12:16:01.538Z,3312.00
2018-12-12T12:17:01.533Z,3212.00
2018-12-12T12:18:01.513Z,3156.00
2018-12-12T12:19:01.506Z,3124.00
2018-12-12T12:20:01.503Z,2976.00
2018-12-12T12:21:01.488Z,3140.00
2018-12-12T12:22:01.473Z,3264.00
2018-12-12T12:23:01.459Z,3464.00
2018-12-12T12:24:01.447Z,3688.00
2018-12-12T12:25:01.437Z,3716.00
2018-12-12T12:26:01.428Z,3748.00
2018-12-12T12:27:01.415Z,3560.00
2018-12-12T12:28:01.413Z,3176.00
2018-12-12T12:29:01.394Z,2784.00
2018-12-12T12:30:01.380Z,2696.00
2018-12-12T12:31:01.368Z,2696.00
2018-12-12T12:32:01.365Z,2648.00
2018-12-12T12:33:01.345Z,2664.00
2018-12-12T12:34:03.312Z,2632.00
2018-12-12T12:35:01.323Z,2748.00
2018-12-12T12:36:01.311Z,2756.00
2018-12-12T12:37:01.302Z,2612.00
2018-12-12T12:38:01.290Z,2480.00
2018-12-12T12:39:01.282Z,2624.00
2018-12-12T12:40:01.272Z,3012.00
2018-12-12T12:41:01.257Z,3440.00
2018-12-12T12:42:01.243Z,3592.00
2018-12-12T12:43:01.233Z,3316.00
2018-12-12T12:44:01.229Z,2908.00
2018-12-12T12:45:01.248Z,2612.00
2018-12-12T12:46:01.199Z,2604.00
2018-12-12T12:47:01.186Z,2780.00
2018-12-12T12:48:01.180Z,2968.00
2018-12-12T12:49:01.167Z,3208.00
2018-12-12T12:50:01.153Z,3612.00
2018-12-12T12:51:01.143Z,4324.00
2018-12-12T12:52:01.132Z,4892.00
2018-12-12T12:53:01.119Z,4968.00
2018-12-12T12:54:01.112Z,5068.00
2018-12-12T12:55:01.096Z,5344.00
2018-12-12T12:56:01.086Z,5248.00
2018-12-12T12:57:01.075Z,5112.00
2018-12-12T12:58:01.062Z,5304.00
2018-12-12T12:59:01.051Z,5316.00
2018-12-12T13:00:01.046Z,5384.00
2018-12-12T13:01:01.029Z,3644.00
2018-12-12T13:02:01.018Z,3208.00
2018-12-12T13:03:01.013Z,3344.00
2018-12-12T13:04:00.997Z,3604.00
2018-12-12T13:05:00.991Z,3780.00
2018-12-12T13:06:00.975Z,3888.00
2018-12-12T13:07:00.962Z,3956.00
2018-12-12T13:08:00.951Z,3920.00
2018-12-12T13:09:00.939Z,3444.00
2018-12-12T13:10:00.928Z,2860.00
2018-12-12T13:11:00.918Z,2192.00